createdAt,value
2023-04-28T00:01:25.666Z,257
2023-04-28T00:04:12.040Z,257
2023-04-28T00:06:35.642Z,256
2023-04-28T00:09:16.152Z,257
2023-04-28T00:11:42.285Z,257
2023-04-28T00:14:04.304Z,258
2023-04-28T00:16:41.144Z,257
2023-04-28T00:19:03.028Z,256
2023-04-28T00:22:15.988Z,256
2023-04-28T00:24:37.787Z,257
2023-04-28T00:27:20.233Z,257
2023-04-28T00:29:50.348Z,257
2023-04-28T00:32:18.969Z,257
2023-04-28T00:34:45.445Z,257
2023-04-28T00:37:17.487Z,257
2023-04-28T00:39:45.445Z,257
2023-04-28T00:44:45.487Z,257
2023-04-28T00:47:18.488Z,257
2023-04-28T00:49:51.945Z,257
2023-04-28T00:52:44.165Z,256
2023-04-28T00:55:25.351Z,259
2023-04-28T00:58:04.185Z,257
2023-04-28T01:00:39.163Z,257
2023-04-28T01:03:16.085Z,256
2023-04-28T01:05:55.628Z,259
2023-04-28T01:09:04.050Z,257
2023-04-28T01:11:48.692Z,256
2023-04-28T01:16:54.597Z,256
2023-04-28T01:19:27.386Z,257
2023-04-28T01:22:21.727Z,257
2023-04-28T01:24:50.667Z,256
2023-04-28T01:27:28.846Z,256
2023-04-28T01:30:02.045Z,257
2023-04-28T01:32:40.172Z,256
2023-04-28T01:35:02.001Z,256
2023-04-28T01:37:24.807Z,256
2023-04-28T01:39:54.111Z,256
2023-04-28T01:42:23.313Z,256
2023-04-28T01:44:36.324Z,255
2023-04-28T01:46:59.964Z,256
2023-04-28T01:49:29.010Z,256
2023-04-28T01:51:49.484Z,254
2023-04-28T01:54:12.645Z,255
2023-04-28T01:56:37.210Z,256
2023-04-28T01:59:14.787Z,255
2023-04-28T02:01:44.255Z,256
2023-04-28T02:04:06.322Z,256
2023-04-28T02:06:28.364Z,256
2023-04-28T02:08:56.494Z,257
2023-04-28T02:11:31.845Z,257
2023-04-28T02:14:07.314Z,256
2023-04-28T02:16:44.613Z,256
2023-04-28T02:19:11.980Z,256
2023-04-28T02:21:45.200Z,256
2023-04-28T02:24:20.441Z,254
2023-04-28T02:27:03.815Z,256
2023-04-28T02:32:31.351Z,255
2023-04-28T02:35:09.502Z,255
2023-04-28T02:37:36.749Z,256
2023-04-28T02:40:02.282Z,256
2023-04-28T02:42:39.207Z,256
2023-04-28T02:45:19.685Z,257
2023-04-28T02:48:24.949Z,255
2023-04-28T02:54:00.925Z,257
2023-04-28T02:59:25.790Z,256
2023-04-28T03:02:53.529Z,256
2023-04-28T03:05:48.135Z,256
2023-04-28T03:08:29.488Z,257
2023-04-28T03:11:12.389Z,257
2023-04-28T03:16:44.213Z,259
2023-04-28T03:22:35.530Z,259
2023-04-28T03:25:09.316Z,259
2023-04-28T03:27:35.171Z,259
2023-04-28T03:30:32.169Z,257
2023-04-28T03:33:10.140Z,257
2023-04-28T03:38:47.654Z,258
2023-04-28T03:41:20.605Z,257
2023-04-28T03:44:15.292Z,259
2023-04-28T03:47:10.166Z,258
2023-04-28T03:49:46.971Z,259
2023-04-28T03:52:37.414Z,258
2023-04-28T03:58:57.161Z,261
2023-04-28T04:01:43.260Z,261
2023-04-28T04:04:35.823Z,260
2023-04-28T04:07:15.401Z,261
2023-04-28T04:09:40.800Z,261
2023-04-28T04:12:41.960Z,261
2023-04-28T04:15:16.763Z,260
2023-04-28T04:18:14.961Z,261
2023-04-28T04:20:53.882Z,261
2023-04-28T04:23:49.260Z,261
2023-04-28T04:35:55.539Z,259
2023-04-28T04:38:36.639Z,259
2023-04-28T04:41:31.500Z,260
2023-04-28T04:44:28.640Z,259
2023-04-28T04:47:22.862Z,259
2023-04-28T04:50:10.044Z,259
2023-04-28T04:52:45.822Z,259
2023-04-28T04:55:25.401Z,259
2023-04-28T04:57:59.639Z,259
2023-04-28T05:00:27.646Z,259
2023-04-28T05:03:00.223Z,259
2023-04-28T05:05:36.719Z,259
2023-04-28T05:08:06.780Z,259
2023-04-28T05:10:32.604Z,258
2023-04-28T05:12:58.684Z,259
2023-04-28T05:15:21.579Z,259
2023-04-28T05:17:36.111Z,259
2023-04-28T05:20:04.382Z,259
2023-04-28T05:22:28.840Z,259
2023-04-28T05:24:52.841Z,259
2023-04-28T05:27:16.686Z,259
2023-04-28T05:29:42.936Z,259
2023-04-28T05:32:06.980Z,259
2023-04-28T05:34:21.022Z,259
2023-04-28T05:36:45.191Z,259
2023-04-28T05:38:57.984Z,259
2023-04-28T05:41:16.100Z,259
2023-04-28T05:43:30.904Z,259
2023-04-28T05:45:51.897Z,259
2023-04-28T05:48:13.511Z,259
2023-04-28T05:50:37.698Z,259
2023-04-28T05:52:49.222Z,260
2023-04-28T05:55:00.299Z,259
2023-04-28T05:57:15.385Z,259
2023-04-28T05:59:31.244Z,259
2023-04-28T06:01:50.775Z,257
2023-04-28T06:04:25.523Z,259
2023-04-28T06:06:49.901Z,258
2023-04-28T06:09:05.982Z,258
2023-04-28T06:11:23.824Z,255
2023-04-28T06:13:42.184Z,258
2023-04-28T06:16:07.829Z,257
2023-04-28T06:18:22.683Z,259
2023-04-28T06:20:43.323Z,257
2023-04-28T06:23:04.694Z,257
2023-04-28T06:25:26.202Z,258
2023-04-28T06:27:55.700Z,257
2023-04-28T06:30:17.127Z,257
2023-04-28T06:32:47.049Z,257
2023-04-28T06:35:11.704Z,261
2023-04-28T06:37:24.551Z,257
2023-04-28T06:39:35.419Z,253
2023-04-28T06:41:45.699Z,257
2023-04-28T06:44:05.302Z,255
2023-04-28T06:46:18.325Z,253
2023-04-28T06:48:29.732Z,254
2023-04-28T06:50:54.494Z,254
2023-04-28T06:53:18.565Z,254
2023-04-28T06:55:43.224Z,255
2023-04-28T06:57:59.240Z,254
2023-04-28T07:00:16.979Z,256
2023-04-28T07:02:28.056Z,261
2023-04-28T07:04:38.942Z,261
2023-04-28T07:06:50.454Z,257
2023-04-28T07:09:02.304Z,261
2023-04-28T07:11:13.952Z,262
2023-04-28T07:13:28.188Z,262
2023-04-28T07:15:41.103Z,262
2023-04-28T07:17:54.442Z,262
2023-04-28T07:20:15.767Z,264
2023-04-28T07:22:28.746Z,262
2023-04-28T07:24:42.461Z,259
2023-04-28T07:26:55.162Z,262
2023-04-28T07:29:09.350Z,262
2023-04-28T07:31:21.505Z,262
2023-04-28T07:33:34.182Z,262
2023-04-28T07:35:50.967Z,264
2023-04-28T07:38:06.027Z,262
2023-04-28T07:40:22.224Z,262
2023-04-28T07:42:45.520Z,262
2023-04-28T07:45:04.544Z,262
2023-04-28T07:47:17.081Z,262
2023-04-28T07:49:30.518Z,262
2023-04-28T07:51:43.208Z,261
2023-04-28T07:53:57.949Z,262
2023-04-28T07:56:12.647Z,262
2023-04-28T07:58:22.820Z,262
2023-04-28T08:00:32.960Z,262
2023-04-28T08:02:50.687Z,262
2023-04-28T08:05:03.773Z,262
2023-04-28T08:07:14.861Z,262
2023-04-28T08:09:24.900Z,262
2023-04-28T08:11:35.279Z,262
2023-04-28T08:13:45.998Z,262
2023-04-28T08:15:57.796Z,262
2023-04-28T08:18:08.331Z,262
2023-04-28T08:20:18.263Z,260
2023-04-28T08:22:34.306Z,262
2023-04-28T08:24:46.555Z,261
2023-04-28T08:26:59.945Z,261
2023-04-28T08:29:12.765Z,262
2023-04-28T08:31:24.415Z,261
2023-04-28T08:33:35.790Z,262
2023-04-28T08:35:47.590Z,262
2023-04-28T08:37:58.047Z,262
2023-04-28T08:40:10.119Z,262
2023-04-28T08:42:23.363Z,262
2023-04-28T08:44:34.741Z,262
2023-04-28T08:46:55.986Z,262
2023-04-28T08:49:06.795Z,261
2023-04-28T08:51:17.053Z,262
2023-04-28T08:53:28.009Z,261
2023-04-28T08:55:44.398Z,261
2023-04-28T08:57:55.454Z,261
2023-04-28T09:00:07.015Z,261
2023-04-28T09:02:18.697Z,262
2023-04-28T09:04:31.032Z,262
2023-04-28T09:06:41.775Z,262
2023-04-28T09:08:53.937Z,262
2023-04-28T09:11:05.413Z,262
2023-04-28T09:13:18.355Z,261
2023-04-28T09:15:31.961Z,261
2023-04-28T09:17:45.580Z,262
2023-04-28T09:19:56.264Z,262
2023-04-28T09:22:41.419Z,262
2023-04-28T09:24:56.863Z,262
2023-04-28T09:27:17.073Z,261
2023-04-28T09:29:30.418Z,262
2023-04-28T09:31:46.051Z,262
2023-04-28T09:34:07.187Z,261
2023-04-28T09:36:19.338Z,262
2023-04-28T09:38:33.171Z,262
2023-04-28T09:40:44.624Z,262
2023-04-28T09:42:56.532Z,262
2023-04-28T09:45:33.013Z,262
2023-04-28T09:47:44.349Z,262
2023-04-28T09:49:55.568Z,262
2023-04-28T09:52:06.964Z,261
2023-04-28T09:54:24.770Z,261
2023-04-28T09:56:35.870Z,261
2023-04-28T09:58:47.687Z,261
2023-04-28T10:00:59.485Z,261
2023-04-28T10:03:11.989Z,262
2023-04-28T10:05:23.903Z,261
2023-04-28T10:07:34.857Z,261
2023-04-28T10:09:45.962Z,261
2023-04-28T10:11:57.848Z,261
2023-04-28T10:14:10.063Z,261
2023-04-28T10:16:20.480Z,261
2023-04-28T10:18:33.623Z,261
2023-04-28T10:20:46.271Z,261
2023-04-28T10:22:57.427Z,262
2023-04-28T10:25:10.481Z,261
2023-04-28T10:27:21.944Z,261
2023-04-28T10:29:32.424Z,262
2023-04-28T10:31:44.117Z,262
2023-04-28T10:33:55.265Z,261
2023-04-28T10:36:04.984Z,261
2023-04-28T10:38:15.773Z,262
2023-04-28T10:40:27.163Z,262
2023-04-28T10:42:38.526Z,262
2023-04-28T10:44:48.646Z,261
2023-04-28T10:47:08.362Z,261
2023-04-28T10:49:24.084Z,261
2023-04-28T10:51:35.124Z,261
2023-04-28T10:53:46.659Z,262
2023-04-28T10:55:56.847Z,262
2023-04-28T10:58:07.046Z,261
2023-04-28T11:00:17.453Z,261
2023-04-28T11:02:29.138Z,261
2023-04-28T11:04:41.217Z,261
2023-04-28T11:06:54.679Z,262
2023-04-28T11:09:07.154Z,261
2023-04-28T11:11:17.309Z,262
2023-04-28T11:13:30.887Z,261
2023-04-28T11:15:42.867Z,261
2023-04-28T11:17:53.797Z,261
2023-04-28T11:20:07.158Z,261
2023-04-28T11:22:16.865Z,262
2023-04-28T11:24:27.149Z,261
2023-04-28T11:26:39.303Z,261
2023-04-28T11:28:50.344Z,262
2023-04-28T11:31:02.894Z,261
2023-04-28T11:33:25.117Z,261
2023-04-28T11:35:43.774Z,262
2023-04-28T11:37:57.705Z,261
2023-04-28T11:40:12.461Z,261
2023-04-28T11:42:33.378Z,261
2023-04-28T11:44:45.267Z,261
2023-04-28T11:46:55.934Z,261
2023-04-28T11:49:07.161Z,261
2023-04-28T11:51:17.646Z,261
2023-04-28T11:53:46.126Z,261
2023-04-28T11:56:23.364Z,261
2023-04-28T11:58:44.722Z,261
2023-04-28T12:01:00.054Z,262
2023-04-28T12:03:17.731Z,261
2023-04-28T12:05:45.345Z,261
2023-04-28T12:07:56.784Z,262
2023-04-28T12:10:10.278Z,262
2023-04-28T12:12:53.278Z,261
2023-04-28T12:15:12.421Z,261
2023-04-28T12:17:29.903Z,261
2023-04-28T12:19:40.978Z,262
2023-04-28T12:22:11.276Z,262
2023-04-28T12:24:24.114Z,262
2023-04-28T12:26:34.532Z,261
2023-04-28T12:28:47.632Z,262
2023-04-28T12:30:58.218Z,261
2023-04-28T12:33:08.063Z,261
2023-04-28T12:35:19.686Z,262
2023-04-28T12:37:29.103Z,261
2023-04-28T12:39:42.238Z,262
2023-04-28T12:41:56.263Z,261
2023-04-28T12:44:07.435Z,261
2023-04-28T12:46:21.681Z,262
2023-04-28T12:48:37.168Z,262
2023-04-28T12:50:51.769Z,261
2023-04-28T12:53:08.893Z,261
2023-04-28T12:55:21.618Z,261
2023-04-28T12:57:33.629Z,261
2023-04-28T12:59:48.311Z,261
2023-04-28T13:02:01.078Z,261
2023-04-28T13:04:13.529Z,261
2023-04-28T13:06:26.037Z,261
2023-04-28T13:08:54.163Z,261
2023-04-28T13:11:44.983Z,260
2023-04-28T13:14:12.308Z,261
2023-04-28T13:16:33.905Z,261
2023-04-28T13:22:10.395Z,260
2023-04-28T13:24:27.980Z,259
2023-04-28T13:26:54.576Z,259
2023-04-28T13:29:29.229Z,261
2023-04-28T13:32:21.217Z,261
2023-04-28T13:35:08.585Z,259
2023-04-28T13:38:02.961Z,258
2023-04-28T13:43:23.679Z,260
2023-04-28T13:45:43.113Z,257
2023-04-28T13:48:05.838Z,256
2023-04-28T13:50:33.435Z,256
2023-04-28T13:52:58.338Z,257
2023-04-28T13:55:15.800Z,257
2023-04-28T13:57:32.163Z,257
2023-04-28T14:00:03.181Z,257
2023-04-28T14:05:05.914Z,256
2023-04-28T14:07:22.758Z,256
2023-04-28T14:09:35.807Z,256
2023-04-28T14:12:03.688Z,256
2023-04-28T14:14:19.088Z,256
2023-04-28T14:16:32.423Z,257
2023-04-28T14:18:53.311Z,256
2023-04-28T14:21:16.793Z,256
2023-04-28T14:23:30.909Z,256
2023-04-28T14:25:43.649Z,256
2023-04-28T14:28:09.988Z,256
2023-04-28T14:30:30.113Z,257
2023-04-28T14:32:57.947Z,256
2023-04-28T14:35:12.992Z,257
2023-04-28T14:37:32.735Z,256
2023-04-28T14:39:55.553Z,257
2023-04-28T14:42:21.674Z,257
2023-04-28T14:44:35.581Z,256
2023-04-28T14:47:37.092Z,257
2023-04-28T14:50:03.865Z,257
2023-04-28T14:52:16.613Z,257
2023-04-28T14:54:34.481Z,257
2023-04-28T14:56:47.422Z,257
2023-04-28T14:58:58.616Z,256
2023-04-28T15:01:14.450Z,256
2023-04-28T15:03:32.079Z,257
2023-04-28T15:05:49.097Z,258
2023-04-28T15:08:05.295Z,257
2023-04-28T15:10:19.251Z,257
2023-04-28T15:12:32.142Z,258
2023-04-28T15:14:44.778Z,257
2023-04-28T15:17:05.177Z,256
2023-04-28T15:19:17.993Z,256
2023-04-28T15:21:34.410Z,257
2023-04-28T15:23:47.833Z,258
2023-04-28T15:26:00.071Z,257
2023-04-28T15:28:12.334Z,257
2023-04-28T15:30:29.397Z,256
2023-04-28T15:32:45.614Z,256
2023-04-28T15:34:57.800Z,256
2023-04-28T15:37:13.793Z,256
2023-04-28T15:39:25.955Z,256
2023-04-28T15:41:36.911Z,257
2023-04-28T15:43:48.632Z,257
2023-04-28T15:45:59.317Z,259
2023-04-28T15:48:10.658Z,258
2023-04-28T15:50:24.278Z,259
2023-04-28T15:52:41.593Z,259
2023-04-28T15:54:54.670Z,258
2023-04-28T15:57:06.480Z,259
2023-04-28T15:59:18.474Z,259
2023-04-28T16:01:30.360Z,259
2023-04-28T16:03:55.406Z,259
2023-04-28T16:06:14.815Z,259
2023-04-28T16:08:29.293Z,261
2023-04-28T16:10:46.735Z,262
2023-04-28T16:13:00.098Z,262
2023-04-28T16:15:13.195Z,261
2023-04-28T16:17:28.246Z,261
2023-04-28T16:19:42.824Z,259
2023-04-28T16:21:55.094Z,253
2023-04-28T16:24:07.101Z,250
2023-04-28T16:26:18.542Z,252
2023-04-28T16:31:34.689Z,256
2023-04-28T16:33:48.196Z,255
2023-04-28T16:35:59.964Z,256
2023-04-28T16:38:18.679Z,255
2023-04-28T16:40:32.813Z,256
2023-04-28T16:42:44.912Z,256
2023-04-28T16:44:59.599Z,255
2023-04-28T16:47:20.081Z,256
2023-04-28T16:49:32.357Z,257
2023-04-28T16:51:45.243Z,248
2023-04-28T16:53:59.393Z,247
2023-04-28T16:56:17.661Z,248
2023-04-28T16:58:36.440Z,254
2023-04-28T17:00:55.357Z,249
2023-04-28T17:03:19.724Z,250
2023-04-28T17:05:40.518Z,253
2023-04-28T17:07:55.740Z,253
2023-04-28T17:10:11.636Z,253
2023-04-28T17:12:30.058Z,253
2023-04-28T17:14:46.118Z,252
2023-04-28T17:16:59.688Z,253
2023-04-28T17:19:12.426Z,253
2023-04-28T17:21:30.094Z,254
2023-04-28T17:23:45.978Z,253
2023-04-28T17:26:03.556Z,250
2023-04-28T17:28:18.658Z,259
2023-04-28T17:30:42.143Z,252
2023-04-28T17:33:01.133Z,248
2023-04-28T17:35:17.355Z,246
2023-04-28T17:37:38.013Z,240
2023-04-28T17:39:52.285Z,253
2023-04-28T17:42:05.381Z,248
2023-04-28T17:44:20.218Z,248
2023-04-28T17:46:33.542Z,246
2023-04-28T17:48:46.732Z,247
2023-04-28T17:51:01.060Z,244
2023-04-28T17:53:14.436Z,246
2023-04-28T17:55:27.617Z,247
2023-04-28T17:57:44.436Z,247
2023-04-28T18:00:12.302Z,244
2023-04-28T18:02:29.906Z,248
2023-04-28T18:04:45.186Z,246
2023-04-28T18:06:59.578Z,246
2023-04-28T18:09:30.170Z,241
2023-04-28T18:11:52.544Z,245
2023-04-28T18:14:05.779Z,249
2023-04-28T18:16:23.718Z,248
2023-04-28T18:18:42.857Z,252
2023-04-28T18:21:00.661Z,246
2023-04-28T18:23:15.237Z,247
2023-04-28T18:25:30.225Z,248
2023-04-28T18:27:45.835Z,253
2023-04-28T18:30:04.963Z,248
2023-04-28T18:32:21.653Z,253
2023-04-28T18:34:36.361Z,252
2023-04-28T18:36:53.580Z,252
2023-04-28T18:39:10.261Z,248
2023-04-28T18:41:35.192Z,249
2023-04-28T18:43:56.012Z,233
2023-04-28T18:46:09.114Z,233
2023-04-28T18:48:24.476Z,249
2023-04-28T18:50:49.559Z,254
2023-04-28T18:53:10.175Z,249
2023-04-28T18:55:32.682Z,250
2023-04-28T18:57:47.625Z,249
2023-04-28T19:00:02.765Z,247
2023-04-28T19:02:29.445Z,238
2023-04-28T19:04:47.185Z,245
2023-04-28T19:07:09.908Z,248
2023-04-28T19:09:27.240Z,250
2023-04-28T19:11:42.247Z,248
2023-04-28T19:13:54.900Z,249
2023-04-28T19:16:14.326Z,253
2023-04-28T19:18:30.025Z,253
2023-04-28T19:20:44.984Z,253
2023-04-28T19:23:02.380Z,252
2023-04-28T19:25:25.256Z,248
2023-04-28T19:27:41.006Z,237
2023-04-28T19:29:57.618Z,236
2023-04-28T19:32:13.977Z,248
2023-04-28T19:34:30.934Z,247
2023-04-28T19:36:55.498Z,247
2023-04-28T19:39:12.803Z,243
2023-04-28T19:41:26.666Z,246
2023-04-28T19:43:45.243Z,246
2023-04-28T19:45:59.970Z,243
2023-04-28T19:48:14.940Z,246
2023-04-28T19:50:30.358Z,246
2023-04-28T19:52:56.766Z,244
2023-04-28T19:55:11.564Z,245
2023-04-28T19:57:25.777Z,245
2023-04-28T19:59:40.655Z,244
2023-04-28T20:02:00.397Z,243
2023-04-28T20:04:16.297Z,235
2023-04-28T20:06:31.897Z,255
2023-04-28T20:11:34.905Z,256
2023-04-28T20:13:50.365Z,257
2023-04-28T20:16:11.456Z,258
2023-04-28T20:18:49.027Z,246
2023-04-28T20:21:02.460Z,248
2023-04-28T20:23:23.586Z,229
2023-04-28T20:25:39.605Z,254
2023-04-28T20:27:56.957Z,257
2023-04-28T20:30:14.516Z,255
2023-04-28T20:32:34.081Z,256
2023-04-28T20:34:47.942Z,256
2023-04-28T20:37:02.041Z,255
2023-04-28T20:39:15.216Z,255
2023-04-28T20:41:34.622Z,248
2023-04-28T20:43:48.138Z,254
2023-04-28T20:46:05.489Z,256
2023-04-28T20:48:20.141Z,256
2023-04-28T20:50:33.422Z,255
2023-04-28T20:52:47.900Z,254
2023-04-28T20:55:01.207Z,255
2023-04-28T20:57:18.771Z,247
2023-04-28T20:59:31.685Z,242
2023-04-28T21:01:44.983Z,250
2023-04-28T21:03:57.399Z,245
2023-04-28T21:06:08.763Z,243
2023-04-28T21:08:27.223Z,244
2023-04-28T21:10:38.887Z,246
2023-04-28T21:12:50.504Z,253
2023-04-28T21:15:09.803Z,249
2023-04-28T21:17:22.494Z,249
2023-04-28T21:19:36.115Z,249
2023-04-28T21:21:47.986Z,249
2023-04-28T21:24:01.417Z,248
2023-04-28T21:26:15.880Z,243
2023-04-28T21:28:30.014Z,244
2023-04-28T21:30:45.445Z,250
2023-04-28T21:32:57.028Z,252
2023-04-28T21:35:09.512Z,249
2023-04-28T21:37:21.265Z,236
2023-04-28T21:39:31.724Z,254
2023-04-28T21:41:45.005Z,253
2023-04-28T21:43:57.824Z,255
2023-04-28T21:46:10.496Z,254
2023-04-28T21:48:26.429Z,255
2023-04-28T21:50:42.062Z,253
2023-04-28T21:52:54.384Z,252
2023-04-28T21:55:06.233Z,254
2023-04-28T21:57:25.764Z,249
2023-04-28T21:59:38.279Z,248
2023-04-28T22:01:50.521Z,253
2023-04-28T22:04:03.597Z,255
2023-04-28T22:06:15.261Z,247
2023-04-28T22:08:27.361Z,261
2023-04-28T22:10:39.347Z,261
2023-04-28T22:12:52.143Z,254
2023-04-28T22:15:03.219Z,257
2023-04-28T22:17:14.762Z,257
2023-04-28T22:19:25.460Z,256
2023-04-28T22:21:35.960Z,255
2023-04-28T22:23:51.741Z,254
2023-04-28T22:26:04.344Z,255
2023-04-28T22:28:16.269Z,254
2023-04-28T22:30:29.987Z,254
2023-04-28T22:32:41.617Z,254
2023-04-28T22:34:52.985Z,254
2023-04-28T22:37:07.821Z,255
2023-04-28T22:39:21.705Z,254
2023-04-28T22:41:40.505Z,256
2023-04-28T22:43:55.426Z,256
2023-04-28T22:46:06.431Z,257
2023-04-28T22:48:21.687Z,257
2023-04-28T22:50:32.903Z,259
2023-04-28T22:52:44.222Z,259
2023-04-28T22:54:57.939Z,259
2023-04-28T22:57:11.437Z,259
2023-04-28T22:59:22.718Z,259
2023-04-28T23:01:34.356Z,257
2023-04-28T23:03:46.205Z,257
2023-04-28T23:05:57.463Z,259
2023-04-28T23:08:13.597Z,259
2023-04-28T23:10:25.216Z,259
2023-04-28T23:12:40.647Z,258
2023-04-28T23:14:53.496Z,257
2023-04-28T23:17:05.556Z,258
2023-04-28T23:19:18.082Z,256
2023-04-28T23:21:29.705Z,256
2023-04-28T23:23:40.538Z,257
2023-04-28T23:25:51.103Z,256
2023-04-28T23:28:01.498Z,257
2023-04-28T23:30:12.137Z,256
2023-04-28T23:32:23.836Z,255
2023-04-28T23:34:34.659Z,256
2023-04-28T23:36:56.101Z,255
2023-04-28T23:39:06.503Z,257
2023-04-28T23:41:17.497Z,257
2023-04-28T23:43:30.696Z,256
2023-04-28T23:45:42.728Z,257
2023-04-28T23:47:54.898Z,258
2023-04-28T23:50:06.757Z,257
2023-04-28T23:52:20.482Z,259
2023-04-28T23:54:32.136Z,254
2023-04-28T23:56:43.821Z,257
2023-04-28T23:58:54.286Z,256
